< Typhoon 202021 2020 Season
Typhoon 202022 (VAMCO)
General InformationDetailed Track InformationTrack Information on Google MapsForecast History on Google MapsAccess Analytics MapList of All Images || NewsDisaster Info.WeblogTrackbackTyphoon FrontTwiphoonTyphoon Now!Typhoon ImaginationJMA Disaster Info. XMLResourceGoogle EarthGE AnimationAtom FeedGeoJSON
Detalied Best Track Wind (Time Zone = UTC)
Year Month Day Hour Lat. Long. Wind (kt) Gust (kt) Direc. of Major Storm Axis Radius of Major Storm Axis (nm) Radius of Minor Storm Axis (nm) Direc. of Major Gale Axis Radius of Major Gale Axis (nm) Radius of Minor Gale Axis (nm) Image
2020 11 8 12 8.8 133.8 30 45 - - - - - - Image
2020 11 8 15 9.2 133.5 30 45 - - - - - - Image
2020 11 8 18 10.2 132.7 30 45 - - - - - - Image
2020 11 8 21 10.8 131.7 30 45 - - - - - - Image
2020 11 9 00 11.5 131.0 30 45 - - - - - - Image
2020 11 9 03 11.6 130.5 30 45 - - - - - - Image
2020 11 9 06 11.6 130.3 35 50 - - - symmetric 210 210 Image
2020 11 9 09 11.8 130.5 35 50 - - - symmetric 210 210 Image
2020 11 9 12 12.0 130.5 35 50 - - - symmetric 210 210 Image
2020 11 9 15 12.1 130.2 35 50 - - - symmetric 180 180 Image
2020 11 9 18 12.4 130.0 35 50 - - - symmetric 150 150 Image
2020 11 9 21 12.5 129.8 35 50 - - - symmetric 120 120 Image
2020 11 10 00 13.4 128.9 40 60 - - - symmetric 120 120 Image
2020 11 10 03 13.5 128.6 40 60 - - - N 210 150 Image
2020 11 10 06 14.0 128.2 45 65 - - - N 210 150 Image
2020 11 10 09 14.3 127.8 45 65 - - - N 210 150 Image
2020 11 10 12 14.4 127.1 50 70 - - - N 210 150 Image
2020 11 10 15 14.4 126.1 50 70 - - - NE 240 150 Image
2020 11 10 18 14.4 125.8 55 80 NE 60 30 NE 240 150 Image
2020 11 10 21 14.6 125.1 60 85 NE 60 30 NE 240 150 Image
2020 11 11 00 14.6 124.6 65 95 symmetric 60 60 N 240 150 Image
2020 11 11 03 14.6 124.1 70 100 symmetric 60 60 N 240 150 Image
2020 11 11 06 14.4 123.5 70 100 symmetric 60 60 N 240 150 Image
2020 11 11 09 14.4 123.3 70 100 symmetric 60 60 N 240 150 Image
2020 11 11 12 14.7 122.9 70 100 symmetric 60 60 N 240 150 Image
2020 11 11 18 15.1 121.3 70 100 symmetric 60 60 NE 270 150 Image
2020 11 11 21 15.5 120.5 60 85 symmetric 40 40 NE 270 150 Image
2020 11 12 00 15.2 119.7 55 80 symmetric 40 40 NE 270 150 Image
2020 11 12 03 15.3 118.9 55 80 symmetric 40 40 NE 270 150 Image
2020 11 12 06 15.2 118.5 60 85 symmetric 40 40 NE 270 150 Image
2020 11 12 09 15.2 117.9 60 85 symmetric 40 40 NE 270 150 Image
2020 11 12 12 15.1 117.4 60 85 symmetric 40 40 NE 270 150 Image
2020 11 12 15 15.2 116.8 60 85 symmetric 40 40 NE 270 150 Image
2020 11 12 18 15.1 116.3 60 85 symmetric 45 45 NE 240 150 Image
2020 11 12 21 15.2 116.0 60 85 symmetric 45 45 NE 210 150 Image
2020 11 13 00 15.3 115.9 60 85 symmetric 45 45 NE 210 150 Image
2020 11 13 03 15.5 115.2 60 85 symmetric 45 45 NE 210 150 Image
2020 11 13 06 15.4 114.4 60 85 symmetric 45 45 NE 210 150 Image
2020 11 13 09 15.5 114.0 65 95 symmetric 45 45 NE 210 150 Image
2020 11 13 12 15.5 113.4 75 105 symmetric 60 60 NE 210 150 Image
2020 11 13 15 15.6 112.9 75 105 symmetric 60 60 NE 210 150 Image
2020 11 13 18 15.6 112.4 80 115 symmetric 60 60 NE 210 150 Image
2020 11 13 21 15.7 111.9 85 120 symmetric 60 60 NE 210 150 Image
2020 11 14 00 15.7 111.4 85 120 symmetric 60 60 NE 210 150 Image
2020 11 14 03 15.8 110.8 85 120 symmetric 60 60 NE 180 150 Image
2020 11 14 06 15.9 110.3 85 120 symmetric 60 60 NE 180 150 Image
2020 11 14 09 16.1 109.9 85 120 symmetric 60 60 NE 180 150 Image
2020 11 14 12 16.4 109.4 85 120 symmetric 60 60 NE 180 150 Image
2020 11 14 15 16.5 108.9 80 115 symmetric 60 60 NE 180 150 Image
2020 11 14 18 16.6 108.7 80 115 symmetric 50 50 N 180 150 Image
2020 11 14 21 16.9 108.3 70 100 symmetric 50 50 N 180 150 Image
2020 11 15 00 17.2 108.0 65 95 symmetric 50 50 N 180 150 Image
2020 11 15 03 17.3 107.3 60 85 symmetric 30 30 N 180 150 Image
2020 11 15 06 17.9 106.6 50 70 - - - N 130 60 Image
2020 11 15 09 18.0 106.2 40 60 - - - NE 130 60 Image
2020 11 15 12 18.1 106.1 35 50 - - - NE 130 60 Image
2020 11 15 15 18.0 105.0 0 0 - - - - - - Image
Japan Meteorological Agency Best Track Data | Correction Date : 2020-11-15
< Typhoon 202021 2020 Season

Help